createdAt,value
2022-08-02T00:02:05.094Z,99661.09
2022-08-02T00:04:53.724Z,99658.97
2022-08-02T00:07:41.661Z,99660.38
2022-08-02T01:04:30.688Z,99688.13
2022-08-02T01:07:18.632Z,99677.16
2022-08-02T01:10:06.238Z,99674.97
2022-08-02T01:12:53.303Z,99665.69
2022-08-02T01:15:44.416Z,99676.66
2022-08-02T01:18:36.610Z,99669.78
2022-08-02T01:21:36.832Z,99668.38
2022-08-02T01:24:41.141Z,99678.44
2022-08-02T01:27:36.787Z,99682.25
2022-08-02T01:30:23.250Z,99679.78
2022-08-02T01:33:11.242Z,99682.25
2022-08-02T01:35:59.123Z,99678.31
2022-08-02T01:38:48.883Z,99685.62
2022-08-02T01:41:36.130Z,99689.28
2022-08-02T01:44:27.585Z,99685.75
2022-08-02T01:47:19.428Z,99684.94
2022-08-02T01:50:06.475Z,99689.09
2022-08-02T01:52:56.705Z,99705.44
2022-08-02T01:55:57.934Z,99705.13
2022-08-02T01:58:46.023Z,99710.16
2022-08-02T02:01:33.748Z,99715.97
2022-08-02T02:04:22.736Z,99716.12
2022-08-02T02:07:09.531Z,99710.81
2022-08-02T02:09:56.895Z,99711.09
2022-08-02T02:12:48.389Z,99706.06
2022-08-02T02:15:35.916Z,99715.31
2022-08-02T02:18:28.381Z,99723.59
2022-08-02T02:21:15.283Z,99721.69
2022-08-02T02:24:01.756Z,99724.88
2022-08-02T02:26:52.329Z,99718.03
2022-08-02T02:29:44.474Z,99712.34
2022-08-02T02:32:31.726Z,99712.34
2022-08-02T02:35:18.666Z,99716.94
2022-08-02T02:38:14.721Z,99703.09
2022-08-02T02:41:03.532Z,99718.53
2022-08-02T02:43:50.966Z,99722.03
2022-08-02T02:46:38.151Z,99729.09
2022-08-02T02:49:25.718Z,99734.34
2022-08-02T02:52:14.486Z,99734.34
2022-08-02T02:55:02.123Z,99731.94
2022-08-02T02:57:49.035Z,99721.47
2022-08-02T03:00:54.310Z,99718.66
2022-08-02T03:03:40.477Z,99719.78
2022-08-02T03:06:28.646Z,99710.69
2022-08-02T03:09:14.892Z,99708.56
2022-08-02T03:12:01.603Z,99703.53
2022-08-02T03:14:49.467Z,99694.88
2022-08-02T03:17:44.333Z,99694.66
2022-08-02T03:20:30.555Z,99696.31
2022-08-02T03:23:16.841Z,99696.81
2022-08-02T03:26:03.758Z,99704.09
2022-08-02T03:28:51.033Z,99704.72
2022-08-02T03:31:41.039Z,99718.00
2022-08-02T03:34:28.208Z,99712.19
2022-08-02T03:37:15.813Z,99712.75
2022-08-02T03:40:03.938Z,99710.97
2022-08-02T03:42:50.857Z,99716.19
2022-08-02T03:45:48.025Z,99724.78
2022-08-02T03:48:37.040Z,99721.94
2022-08-02T03:51:24.537Z,99729.78
2022-08-02T03:54:11.865Z,99733.19
2022-08-02T03:56:58.597Z,99732.06
2022-08-02T03:59:46.232Z,99731.47
2022-08-02T04:02:32.475Z,99734.31
2022-08-02T04:05:19.666Z,99737.72
2022-08-02T04:08:36.031Z,99737.94
2022-08-02T04:11:32.731Z,99735.38
2022-08-02T04:14:19.988Z,99743.06
2022-08-02T04:17:09.049Z,99744.00
2022-08-02T04:20:05.945Z,99753.84
2022-08-02T04:23:02.308Z,99746.97
2022-08-02T04:25:51.468Z,99755.84
2022-08-02T04:28:38.141Z,99755.75
2022-08-02T04:31:25.294Z,99754.28
2022-08-02T04:34:15.449Z,99760.50
2022-08-02T04:37:02.772Z,99751.66
2022-08-02T04:39:50.282Z,99753.75
2022-08-02T04:42:36.609Z,99754.69
2022-08-02T04:45:23.753Z,99759.06
2022-08-02T04:48:10.903Z,99755.66
2022-08-02T04:50:57.646Z,99753.97
2022-08-02T04:53:45.417Z,99756.91
2022-08-02T04:56:35.946Z,99756.91
2022-08-02T04:59:23.162Z,99759.97
2022-08-02T05:02:10.946Z,99763.94
2022-08-02T05:04:57.586Z,99766.25
2022-08-02T05:07:44.370Z,99778.34
2022-08-02T05:10:31.139Z,99778.97
2022-08-02T05:13:17.547Z,99793.16
2022-08-02T05:16:04.807Z,99795.13
2022-08-02T05:18:51.939Z,99791.75
2022-08-02T05:21:38.178Z,99792.88
2022-08-02T05:24:25.553Z,99794.53
2022-08-02T05:27:21.200Z,99805.81
2022-08-02T05:30:09.824Z,99808.84
2022-08-02T05:32:57.655Z,99809.00
2022-08-02T05:35:47.732Z,99805.59
2022-08-02T05:38:36.784Z,99808.31
2022-08-02T05:41:24.368Z,99819.94
2022-08-02T05:44:13.366Z,99815.16
2022-08-02T05:47:00.535Z,99826.44
2022-08-02T05:49:47.951Z,99823.59
2022-08-02T05:52:49.744Z,99815.88
2022-08-02T05:56:11.092Z,99819.97
2022-08-02T05:59:12.927Z,99820.88
2022-08-02T06:02:04.886Z,99813.22
2022-08-02T06:05:01.770Z,99828.97
2022-08-02T06:07:53.181Z,99818.78
2022-08-02T06:10:40.648Z,99820.19
2022-08-02T06:13:28.979Z,99817.06
2022-08-02T06:16:16.206Z,99823.66
2022-08-02T06:19:05.574Z,99827.00
2022-08-02T06:22:31.402Z,99819.16
2022-08-02T06:25:00.128Z,99820.44
2022-08-02T06:27:50.761Z,99815.66
2022-08-02T06:30:37.816Z,99820.81
2022-08-02T06:33:25.096Z,99824.72
2022-08-02T06:36:27.831Z,99834.09
2022-08-02T06:39:28.148Z,99824.41
2022-08-02T06:42:27.290Z,99829.62
2022-08-02T06:45:22.908Z,99828.84
2022-08-02T06:48:10.021Z,99829.62
2022-08-02T06:50:57.236Z,99824.03
2022-08-02T06:53:45.670Z,99829.53
2022-08-02T06:56:32.782Z,99826.44
2022-08-02T06:59:20.173Z,99830.50
2022-08-02T07:02:06.786Z,99831.25
2022-08-02T07:04:53.734Z,99827.19
2022-08-02T07:07:41.526Z,99830.50
2022-08-02T07:10:29.746Z,99825.66
2022-08-02T07:13:16.253Z,99826.78
2022-08-02T07:16:06.004Z,99825.09
2022-08-02T07:18:54.747Z,99818.72
2022-08-02T07:21:56.690Z,99823.13
2022-08-02T07:24:47.812Z,99817.31
2022-08-02T07:27:34.611Z,99816.31
2022-08-02T07:30:25.399Z,99815.81
2022-08-02T07:33:38.119Z,99816.41
2022-08-02T07:36:22.801Z,99804.78
2022-08-02T07:39:12.666Z,99811.41
2022-08-02T07:42:00.310Z,99799.00
2022-08-02T07:44:49.316Z,99804.31
2022-08-02T07:47:44.051Z,99805.91
2022-08-02T07:50:46.865Z,99800.22
2022-08-02T07:53:50.787Z,99814.53
2022-08-02T07:56:44.778Z,99802.91
2022-08-02T07:59:32.809Z,99808.75
2022-08-02T08:02:24.767Z,99808.03
2022-08-02T08:05:12.786Z,99807.50
2022-08-02T08:07:59.877Z,99811.81
2022-08-02T08:10:47.497Z,99805.34
2022-08-02T08:13:33.958Z,99812.06
2022-08-02T08:16:26.404Z,99813.72
2022-08-02T08:19:14.847Z,99816.38
2022-08-02T08:22:01.973Z,99814.00
2022-08-02T08:24:50.553Z,99814.25
2022-08-02T08:27:38.205Z,99826.09
2022-08-02T08:30:27.203Z,99817.19
2022-08-02T08:33:17.440Z,99809.66
2022-08-02T08:36:05.801Z,99818.44
2022-08-02T08:38:52.944Z,99817.31
2022-08-02T08:41:43.776Z,99813.84
2022-08-02T08:44:30.899Z,99816.34
2022-08-02T08:47:20.077Z,99827.28
2022-08-02T08:50:25.758Z,99819.78
2022-08-02T08:53:14.871Z,99825.84
2022-08-02T08:56:02.827Z,99818.50
2022-08-02T08:58:53.362Z,99823.56
2022-08-02T09:01:50.215Z,99822.81
2022-08-02T09:04:38.159Z,99831.84
2022-08-02T09:07:37.065Z,99826.34
2022-08-02T09:10:45.058Z,99830.56
2022-08-02T09:13:45.820Z,99831.44
2022-08-02T09:16:34.442Z,99823.72
2022-08-02T09:19:29.744Z,99831.53
2022-08-02T09:22:18.676Z,99824.97
2022-08-02T09:25:15.527Z,99822.38
2022-08-02T09:28:06.906Z,99829.12
2022-08-02T09:30:56.913Z,99831.09
2022-08-02T09:33:56.002Z,99829.16
2022-08-02T09:36:47.052Z,99819.13
2022-08-02T09:39:47.723Z,99825.47
2022-08-02T09:42:37.613Z,99830.06
2022-08-02T09:45:30.471Z,99827.91
2022-08-02T09:48:18.896Z,99818.31
2022-08-02T09:51:12.430Z,99823.13
2022-08-02T09:54:09.363Z,99809.78
2022-08-02T09:57:01.850Z,99816.47
2022-08-02T09:59:54.812Z,99811.13
2022-08-02T10:03:08.300Z,99806.91
2022-08-02T10:06:03.336Z,99812.66
2022-08-02T10:08:53.806Z,99807.81
2022-08-02T10:11:56.083Z,99804.63
2022-08-02T10:14:43.907Z,99800.91
2022-08-02T10:17:36.858Z,99796.56
2022-08-02T10:20:23.824Z,99796.25
2022-08-02T10:23:11.721Z,99791.81
2022-08-02T10:26:06.805Z,99798.09
2022-08-02T10:28:57.471Z,99796.38
2022-08-02T10:31:55.275Z,99791.94
2022-08-02T10:35:19.149Z,99790.63
2022-08-02T10:38:12.745Z,99788.47
2022-08-02T10:40:59.972Z,99779.87
2022-08-02T10:43:57.233Z,99774.88
2022-08-02T10:46:52.836Z,99777.81
2022-08-02T10:49:56.418Z,99779.59
2022-08-02T10:52:43.791Z,99786.44
2022-08-02T10:55:46.093Z,99781.53
2022-08-02T10:58:36.835Z,99787.97
2022-08-02T11:01:38.804Z,99780.47
2022-08-02T11:04:31.053Z,99786.97
2022-08-02T11:07:19.393Z,99783.22
2022-08-02T11:10:37.877Z,99775.09
2022-08-02T11:13:26.618Z,99777.38
2022-08-02T11:16:15.808Z,99778.81
2022-08-02T11:19:03.891Z,99773.75
2022-08-02T11:22:02.315Z,99766.63
2022-08-02T11:24:51.240Z,99777.09
2022-08-02T11:27:38.932Z,99765.25
2022-08-02T11:30:33.840Z,99770.81
2022-08-02T11:33:31.250Z,99780.41
2022-08-02T11:36:21.120Z,99776.34
2022-08-02T11:39:23.490Z,99779.34
2022-08-02T11:42:13.169Z,99766.63
2022-08-02T11:45:01.768Z,99760.62
2022-08-02T11:47:51.673Z,99755.56
2022-08-02T11:50:45.870Z,99761.16
2022-08-02T11:53:41.654Z,99762.47
2022-08-02T11:56:35.769Z,99757.66
2022-08-02T11:59:28.196Z,99768.28
2022-08-02T12:02:21.763Z,99767.63
2022-08-02T12:05:12.012Z,99768.47
2022-08-02T12:08:00.918Z,99773.13
2022-08-02T12:10:58.015Z,99764.53
2022-08-02T12:13:57.098Z,99768.03
2022-08-02T12:17:04.840Z,99765.03
2022-08-02T12:19:52.148Z,99753.62
2022-08-02T12:22:43.232Z,99763.59
2022-08-02T12:25:35.546Z,99757.63
2022-08-02T12:28:26.835Z,99766.59
2022-08-02T12:31:18.090Z,99747.66
2022-08-02T12:34:17.047Z,99747.25
2022-08-02T12:37:09.770Z,99750.97
2022-08-02T12:40:26.154Z,99737.62
2022-08-02T12:43:20.319Z,99735.38
2022-08-02T12:46:16.868Z,99738.34
2022-08-02T12:49:19.918Z,99729.28
2022-08-02T12:52:25.192Z,99734.22
2022-08-02T12:55:26.002Z,99737.62
2022-08-02T12:58:54.712Z,99739.22
2022-08-02T13:01:42.911Z,99734.09
2022-08-02T13:04:34.910Z,99738.31
2022-08-02T13:07:22.416Z,99741.69
2022-08-02T13:10:11.001Z,99739.34
2022-08-02T13:13:03.638Z,99740.22
2022-08-02T13:15:51.647Z,99734.28
2022-08-02T13:18:40.599Z,99731.28
2022-08-02T13:21:41.503Z,99727.81
2022-08-02T13:24:55.638Z,99716.47
2022-08-02T13:27:46.054Z,99721.19
2022-08-02T13:30:39.324Z,99722.00
2022-08-02T13:33:34.883Z,99721.38
2022-08-02T13:36:39.191Z,99717.28
2022-08-02T13:39:28.037Z,99723.91
2022-08-02T13:42:17.721Z,99718.78
2022-08-02T13:45:17.836Z,99711.09
2022-08-02T13:48:17.067Z,99711.09
2022-08-02T13:51:11.932Z,99715.25
2022-08-02T13:54:04.754Z,99717.28
2022-08-02T13:56:58.342Z,99716.75
2022-08-02T13:59:58.334Z,99708.19
2022-08-02T14:02:54.846Z,99712.16
2022-08-02T14:05:47.304Z,99705.31
2022-08-02T14:08:35.564Z,99710.97
2022-08-02T14:11:25.562Z,99696.13
2022-08-02T14:14:17.250Z,99709.28
2022-08-02T14:17:06.073Z,99707.94
2022-08-02T14:20:06.930Z,99704.13
2022-08-02T14:23:01.851Z,99691.31
2022-08-02T14:25:54.990Z,99700.97
2022-08-02T14:28:44.936Z,99697.44
2022-08-02T14:34:44.313Z,99702.31
2022-08-02T14:37:33.096Z,99695.09
2022-08-02T14:43:23.020Z,99700.06
2022-08-02T14:46:19.862Z,99699.69
2022-08-02T14:49:12.128Z,99698.56
2022-08-02T14:52:08.227Z,99695.22
2022-08-02T14:54:59.897Z,99684.94
2022-08-02T14:57:49.634Z,99690.66
2022-08-02T15:00:41.141Z,99703.66
2022-08-02T15:03:43.277Z,99700.41
2022-08-02T15:06:37.822Z,99705.81
2022-08-02T15:09:27.870Z,99706.97
2022-08-02T15:12:19.123Z,99701.97
2022-08-02T15:15:12.865Z,99706.13
2022-08-02T15:18:02.108Z,99709.50
2022-08-02T15:21:06.402Z,99709.28
2022-08-02T15:27:19.103Z,99710.59
2022-08-02T15:30:09.859Z,99707.66
2022-08-02T15:32:56.606Z,99704.34
2022-08-02T15:35:45.131Z,99707.62
2022-08-02T15:38:33.170Z,99699.62
2022-08-02T15:41:35.887Z,99702.31
2022-08-02T15:44:29.937Z,99700.22
2022-08-02T15:47:24.851Z,99701.31
2022-08-02T15:50:13.015Z,99700.91
2022-08-02T15:53:01.123Z,99706.13
2022-08-02T15:55:52.648Z,99703.16
2022-08-02T15:59:02.976Z,99712.09
2022-08-02T16:01:55.910Z,99711.47
2022-08-02T16:04:43.259Z,99706.09
2022-08-02T16:07:31.969Z,99699.50
2022-08-02T16:10:20.831Z,99703.25
2022-08-02T16:13:54.045Z,99708.00
2022-08-02T16:19:49.103Z,99704.16
2022-08-02T16:22:38.758Z,99709.94
2022-08-02T16:25:29.017Z,99711.91
2022-08-02T16:28:16.450Z,99712.31
2022-08-02T16:31:11.257Z,99707.53
2022-08-02T16:34:01.361Z,99715.28
2022-08-02T16:36:50.901Z,99712.47
2022-08-02T16:39:52.088Z,99704.69
2022-08-02T16:42:50.734Z,99710.94
2022-08-02T16:45:46.859Z,99713.66
2022-08-02T16:48:33.915Z,99703.53
2022-08-02T16:51:28.873Z,99712.56
2022-08-02T16:54:23.378Z,99707.94
2022-08-02T16:57:15.175Z,99712.22
2022-08-02T17:00:12.577Z,99718.00
2022-08-02T17:10:02.596Z,99709.31
2022-08-02T17:12:24.107Z,99719.31
2022-08-02T17:16:01.662Z,99720.28
2022-08-02T17:18:42.500Z,99720.66
2022-08-02T17:21:34.090Z,99720.50
2022-08-02T17:24:29.655Z,99725.28
2022-08-02T17:27:21.126Z,99731.03
2022-08-02T17:30:28.092Z,99723.28
2022-08-02T17:33:19.113Z,99733.28
2022-08-02T17:36:20.428Z,99730.78
2022-08-02T17:39:10.485Z,99742.41
2022-08-02T17:42:07.992Z,99738.25
2022-08-02T17:45:06.852Z,99746.94
2022-08-02T17:48:08.181Z,99749.37
2022-08-02T17:51:08.096Z,99756.22
2022-08-02T17:54:03.365Z,99752.53
2022-08-02T17:56:59.928Z,99757.28
2022-08-02T18:00:04.401Z,99774.19
2022-08-02T18:03:08.015Z,99766.41
2022-08-02T18:06:04.839Z,99772.19
2022-08-02T18:08:57.982Z,99773.97
2022-08-02T18:14:55.278Z,99783.66
2022-08-02T18:17:44.722Z,99773.88
2022-08-02T18:20:40.950Z,99784.66
2022-08-02T18:23:44.198Z,99787.81
2022-08-02T18:26:43.351Z,99789.75
2022-08-02T18:29:38.667Z,99804.63
2022-08-02T18:33:58.318Z,99800.75
2022-08-02T18:35:34.922Z,99802.47
2022-08-02T18:38:23.216Z,99802.78
2022-08-02T18:41:24.925Z,99809.34
2022-08-02T18:47:15.664Z,99813.81
2022-08-02T18:50:03.511Z,99817.41
2022-08-02T18:53:05.127Z,99808.06
2022-08-02T18:56:07.253Z,99815.16
2022-08-02T18:59:03.917Z,99817.53
2022-08-02T19:01:52.205Z,99830.78
2022-08-02T19:04:54.327Z,99829.41
2022-08-02T19:07:49.841Z,99833.25
2022-08-02T19:10:49.988Z,99831.94
2022-08-02T19:13:49.998Z,99832.06
2022-08-02T19:16:44.973Z,99829.25
2022-08-02T19:19:42.462Z,99837.03
2022-08-02T19:22:53.709Z,99840.53
2022-08-02T19:25:50.371Z,99836.50
2022-08-02T19:28:50.062Z,99833.34
2022-08-02T19:31:59.860Z,99835.03
2022-08-02T19:35:19.968Z,99836.75
2022-08-02T19:38:20.563Z,99845.53
2022-08-02T19:44:29.335Z,99837.28
2022-08-02T19:47:20.495Z,99830.81
2022-08-02T19:50:17.948Z,99832.63
2022-08-02T19:53:23.901Z,99836.22
2022-08-02T19:59:24.927Z,99841.44
2022-08-02T20:02:33.002Z,99844.09
2022-08-02T20:05:26.784Z,99846.53
2022-08-02T20:08:31.734Z,99847.28
2022-08-02T20:11:27.791Z,99841.50
2022-08-02T20:14:27.540Z,99846.47
2022-08-02T20:17:16.332Z,99837.84
2022-08-02T20:20:08.624Z,99838.78
2022-08-02T20:23:33.590Z,99850.19
2022-08-02T20:26:33.301Z,99845.47
2022-08-02T20:29:42.499Z,99844.34
2022-08-02T20:32:40.067Z,99851.44
2022-08-02T20:35:40.895Z,99843.03
2022-08-02T20:38:38.919Z,99847.03
2022-08-02T20:41:36.499Z,99839.94
2022-08-02T20:44:38.146Z,99842.78
2022-08-02T20:47:39.438Z,99836.78
2022-08-02T20:50:49.305Z,99840.00
2022-08-02T20:53:54.804Z,99849.66
2022-08-02T20:56:45.051Z,99839.25
2022-08-02T20:59:40.830Z,99850.81
2022-08-02T21:02:29.959Z,99841.22
2022-08-02T21:05:18.296Z,99847.22
2022-08-02T21:08:07.941Z,99834.47
2022-08-02T21:11:01.468Z,99841.66
2022-08-02T21:14:07.360Z,99844.88
2022-08-02T21:16:55.561Z,99847.25
2022-08-02T21:19:44.124Z,99858.47
2022-08-02T21:22:31.439Z,99856.03
2022-08-02T21:25:42.386Z,99854.00
2022-08-02T21:28:35.135Z,99859.25
2022-08-02T21:31:35.871Z,99851.66
2022-08-02T21:34:30.262Z,99858.44
2022-08-02T21:37:17.617Z,99868.22
2022-08-02T21:40:06.060Z,99864.75
2022-08-02T21:42:59.060Z,99861.53
2022-08-02T21:45:53.544Z,99864.41
2022-08-02T21:48:42.434Z,99860.00
2022-08-02T21:51:34.179Z,99859.09
2022-08-02T21:54:22.164Z,99871.97
2022-08-02T21:57:15.128Z,99869.38
2022-08-02T22:00:10.893Z,99865.56
2022-08-02T22:02:57.860Z,99858.41
2022-08-02T22:05:47.334Z,99860.97
2022-08-02T22:08:34.166Z,99858.81
2022-08-02T22:11:22.305Z,99853.06
2022-08-02T22:14:09.788Z,99849.22
2022-08-02T22:16:57.764Z,99854.91
2022-08-02T22:19:53.923Z,99851.03
2022-08-02T22:22:40.979Z,99848.16
2022-08-02T22:25:36.711Z,99846.06
2022-08-02T22:28:38.404Z,99850.16
2022-08-02T22:31:40.502Z,99848.59
2022-08-02T22:34:51.331Z,99854.47
2022-08-02T22:38:16.976Z,99852.81
2022-08-02T22:40:44.509Z,99855.06
2022-08-02T22:43:33.190Z,99853.69
2022-08-02T22:46:20.364Z,99858.88
2022-08-02T22:49:37.218Z,99862.13
2022-08-02T22:52:21.031Z,99856.75
2022-08-02T22:55:10.193Z,99865.31
2022-08-02T22:58:00.093Z,99870.47
2022-08-02T22:58:50.938Z,99710.94
2022-08-02T23:00:47.006Z,99869.69
2022-08-02T23:03:34.352Z,99872.88
2022-08-02T23:06:22.930Z,99875.25
2022-08-02T23:09:09.348Z,99870.38
2022-08-02T23:11:55.621Z,99874.53
2022-08-02T23:14:42.032Z,99868.56
2022-08-02T23:17:47.962Z,99873.88
2022-08-02T23:20:34.976Z,99872.00
2022-08-02T23:23:22.553Z,99876.69
2022-08-02T23:26:09.871Z,99872.56
2022-08-02T23:28:56.994Z,99868.53
2022-08-02T23:31:43.986Z,99872.50
2022-08-02T23:34:31.453Z,99868.75
2022-08-02T23:37:18.873Z,99879.66
2022-08-02T23:40:07.784Z,99882.78
2022-08-02T23:42:54.381Z,99878.16
2022-08-02T23:45:41.202Z,99868.03
2022-08-02T23:48:27.538Z,99862.06
2022-08-02T23:51:15.649Z,99868.22
2022-08-02T23:54:08.108Z,99869.25
2022-08-02T23:56:55.769Z,99870.31
2022-08-02T23:59:46.364Z,99875.44
